sensor_id;sensor_type;location;lat;lon;timestamp;temperature;humidity
17178;DHT22;8704;52.006;4.374;2023-01-15T00:00:00;7.60;1.00
17178;DHT22;8704;52.006;4.374;2023-01-15T00:02:30;7.60;1.00
17178;DHT22;8704;52.006;4.374;2023-01-15T00:04:58;7.60;1.00
17178;DHT22;8704;52.006;4.374;2023-01-15T00:07:30;7.60;1.00
17178;DHT22;8704;52.006;4.374;2023-01-15T00:09:58;7.70;1.00
17178;DHT22;8704;52.006;4.374;2023-01-15T00:12:26;8.10;1.00
17178;DHT22;8704;52.006;4.374;2023-01-15T00:14:54;7.70;1.00
17178;DHT22;8704;52.006;4.374;2023-01-15T00:17:24;7.90;1.00
17178;DHT22;8704;52.006;4.374;2023-01-15T00:19:52;7.60;1.00
17178;DHT22;8704;52.006;4.374;2023-01-15T00:22:20;8.10;1.00
17178;DHT22;8704;52.006;4.374;2023-01-15T00:24:49;7.70;1.00
17178;DHT22;8704;52.006;4.374;2023-01-15T00:27:34;7.60;1.00
17178;DHT22;8704;52.006;4.374;2023-01-15T00:30:08;7.60;1.00
17178;DHT22;8704;52.006;4.374;2023-01-15T00:32:37;7.60;1.00
17178;DHT22;8704;52.006;4.374;2023-01-15T00:35:06;7.50;1.00
17178;DHT22;8704;52.006;4.374;2023-01-15T00:37:34;7.50;1.00
17178;DHT22;8704;52.006;4.374;2023-01-15T00:40:04;7.50;1.00
17178;DHT22;8704;52.006;4.374;2023-01-15T00:42:32;7.50;1.00
17178;DHT22;8704;52.006;4.374;2023-01-15T00:45:00;7.50;1.00
17178;DHT22;8704;52.006;4.374;2023-01-15T00:47:36;7.40;1.00
17178;DHT22;8704;52.006;4.374;2023-01-15T00:50:05;7.40;1.00
17178;DHT22;8704;52.006;4.374;2023-01-15T00:52:33;7.40;1.00
17178;DHT22;8704;52.006;4.374;2023-01-15T00:55:03;7.40;1.00
17178;DHT22;8704;52.006;4.374;2023-01-15T00:57:32;7.40;1.00
17178;DHT22;8704;52.006;4.374;2023-01-15T01:00:00;7.40;1.00
17178;DHT22;8704;52.006;4.374;2023-01-15T01:02:28;8.10;1.00
17178;DHT22;8704;52.006;4.374;2023-01-15T01:04:56;7.40;1.00
17178;DHT22;8704;52.006;4.374;2023-01-15T01:07:24;7.40;1.00
17178;DHT22;8704;52.006;4.374;2023-01-15T01:09:52;7.40;1.00
17178;DHT22;8704;52.006;4.374;2023-01-15T01:12:21;7.30;1.00
17178;DHT22;8704;52.006;4.374;2023-01-15T01:14:50;7.30;1.00
17178;DHT22;8704;52.006;4.374;2023-01-15T01:17:18;7.30;1.00
17178;DHT22;8704;52.006;4.374;2023-01-15T01:19:46;7.30;1.00
17178;DHT22;8704;52.006;4.374;2023-01-15T01:22:14;7.30;1.00
17178;DHT22;8704;52.006;4.374;2023-01-15T01:24:42;7.50;1.00
17178;DHT22;8704;52.006;4.374;2023-01-15T01:27:10;7.30;1.00
17178;DHT22;8704;52.006;4.374;2023-01-15T01:29:39;7.30;1.00
17178;DHT22;8704;52.006;4.374;2023-01-15T01:32:07;7.30;1.00
17178;DHT22;8704;52.006;4.374;2023-01-15T01:34:35;7.30;1.00
17178;DHT22;8704;52.006;4.374;2023-01-15T01:37:03;7.30;1.00
17178;DHT22;8704;52.006;4.374;2023-01-15T01:39:31;7.30;1.00
17178;DHT22;8704;52.006;4.374;2023-01-15T01:41:59;7.40;1.00
17178;DHT22;8704;52.006;4.374;2023-01-15T01:45:12;7.30;1.00
17178;DHT22;8704;52.006;4.374;2023-01-15T01:47:45;7.30;1.00
17178;DHT22;8704;52.006;4.374;2023-01-15T01:50:13;7.40;1.00
17178;DHT22;8704;52.006;4.374;2023-01-15T01:52:45;7.30;1.00
17178;DHT22;8704;52.006;4.374;2023-01-15T01:55:17;7.30;1.00
17178;DHT22;8704;52.006;4.374;2023-01-15T01:57:47;7.30;1.00
17178;DHT22;8704;52.006;4.374;2023-01-15T02:00:18;7.20;1.00
17178;DHT22;8704;52.006;4.374;2023-01-15T02:02:47;7.20;1.00
17178;DHT22;8704;52.006;4.374;2023-01-15T02:05:22;7.30;1.00
17178;DHT22;8704;52.006;4.374;2023-01-15T02:07:53;7.30;1.00
17178;DHT22;8704;52.006;4.374;2023-01-15T02:10:22;7.30;1.00
17178;DHT22;8704;52.006;4.374;2023-01-15T02:12:55;7.30;1.00
17178;DHT22;8704;52.006;4.374;2023-01-15T02:15:30;7.30;1.00
17178;DHT22;8704;52.006;4.374;2023-01-15T02:18:05;7.30;1.00
17178;DHT22;8704;52.006;4.374;2023-01-15T02:20:39;7.30;1.00
17178;DHT22;8704;52.006;4.374;2023-01-15T02:23:26;7.30;1.00
17178;DHT22;8704;52.006;4.374;2023-01-15T02:26:12;7.30;1.00
17178;DHT22;8704;52.006;4.374;2023-01-15T02:28:45;7.30;1.00
17178;DHT22;8704;52.006;4.374;2023-01-15T02:31:17;7.20;1.00
17178;DHT22;8704;52.006;4.374;2023-01-15T02:33:50;7.30;1.00
17178;DHT22;8704;52.006;4.374;2023-01-15T02:36:23;7.30;1.00
17178;DHT22;8704;52.006;4.374;2023-01-15T02:38:55;7.20;1.00
17178;DHT22;8704;52.006;4.374;2023-01-15T02:41:28;7.20;1.00
17178;DHT22;8704;52.006;4.374;2023-01-15T02:44:00;7.20;1.00
17178;DHT22;8704;52.006;4.374;2023-01-15T02:46:33;7.20;1.00
17178;DHT22;8704;52.006;4.374;2023-01-15T02:49:04;7.60;1.00
17178;DHT22;8704;52.006;4.374;2023-01-15T02:51:38;7.20;1.00
17178;DHT22;8704;52.006;4.374;2023-01-15T02:54:14;7.20;1.00
17178;DHT22;8704;52.006;4.374;2023-01-15T02:56:46;7.10;1.00
17178;DHT22;8704;52.006;4.374;2023-01-15T02:59:21;7.10;1.00
17178;DHT22;8704;52.006;4.374;2023-01-15T03:01:55;7.10;1.00
17178;DHT22;8704;52.006;4.374;2023-01-15T03:04:29;7.20;1.00
17178;DHT22;8704;52.006;4.374;2023-01-15T03:07:04;7.20;1.00
17178;DHT22;8704;52.006;4.374;2023-01-15T03:09:34;7.20;1.00
17178;DHT22;8704;52.006;4.374;2023-01-15T03:12:07;7.70;1.00
17178;DHT22;8704;52.006;4.374;2023-01-15T03:14:40;7.10;1.00
17178;DHT22;8704;52.006;4.374;2023-01-15T03:17:14;7.10;1.00
17178;DHT22;8704;52.006;4.374;2023-01-15T03:19:48;7.00;1.00
17178;DHT22;8704;52.006;4.374;2023-01-15T03:22:20;7.00;1.00
17178;DHT22;8704;52.006;4.374;2023-01-15T03:24:52;7.00;1.00
17178;DHT22;8704;52.006;4.374;2023-01-15T03:27:22;7.00;1.00
17178;DHT22;8704;52.006;4.374;2023-01-15T03:29:54;7.00;1.00
17178;DHT22;8704;52.006;4.374;2023-01-15T03:32:25;7.00;1.00
17178;DHT22;8704;52.006;4.374;2023-01-15T03:34:54;7.00;1.00
17178;DHT22;8704;52.006;4.374;2023-01-15T03:37:24;7.00;1.00
17178;DHT22;8704;52.006;4.374;2023-01-15T03:39:54;7.00;1.00
17178;DHT22;8704;52.006;4.374;2023-01-15T03:42:33;7.00;1.00
17178;DHT22;8704;52.006;4.374;2023-01-15T03:45:09;7.10;1.00
17178;DHT22;8704;52.006;4.374;2023-01-15T03:47:46;7.10;1.00
17178;DHT22;8704;52.006;4.374;2023-01-15T03:50:21;7.00;1.00
17178;DHT22;8704;52.006;4.374;2023-01-15T03:52:56;7.00;1.00
17178;DHT22;8704;52.006;4.374;2023-01-15T03:55:35;7.20;1.00
17178;DHT22;8704;52.006;4.374;2023-01-15T03:58:11;7.00;1.00
17178;DHT22;8704;52.006;4.374;2023-01-15T04:00:43;7.00;1.00
17178;DHT22;8704;52.006;4.374;2023-01-15T04:03:15;7.10;1.00
17178;DHT22;8704;52.006;4.374;2023-01-15T04:05:44;7.00;1.00
17178;DHT22;8704;52.006;4.374;2023-01-15T04:08:13;7.10;1.00
17178;DHT22;8704;52.006;4.374;2023-01-15T04:10:51;7.00;1.00
17178;DHT22;8704;52.006;4.374;2023-01-15T04:13:20;7.60;1.00
17178;DHT22;8704;52.006;4.374;2023-01-15T04:15:50;7.00;1.00
17178;DHT22;8704;52.006;4.374;2023-01-15T04:18:18;7.00;1.00
17178;DHT22;8704;52.006;4.374;2023-01-15T04:20:47;7.00;1.00
17178;DHT22;8704;52.006;4.374;2023-01-15T04:23:15;7.20;1.00
17178;DHT22;8704;52.006;4.374;2023-01-15T04:25:43;7.00;1.00
17178;DHT22;8704;52.006;4.374;2023-01-15T04:28:11;7.10;1.00
17178;DHT22;8704;52.006;4.374;2023-01-15T04:30:39;7.10;1.00
17178;DHT22;8704;52.006;4.374;2023-01-15T04:33:10;7.20;1.00
17178;DHT22;8704;52.006;4.374;2023-01-15T04:35:38;7.10;1.00
17178;DHT22;8704;52.006;4.374;2023-01-15T04:38:06;7.10;1.00
17178;DHT22;8704;52.006;4.374;2023-01-15T04:40:34;7.10;1.00
17178;DHT22;8704;52.006;4.374;2023-01-15T04:43:20;7.00;1.00
17178;DHT22;8704;52.006;4.374;2023-01-15T04:46:05;7.50;1.00
17178;DHT22;8704;52.006;4.374;2023-01-15T04:48:35;6.90;1.00
17178;DHT22;8704;52.006;4.374;2023-01-15T04:51:03;7.10;1.00
17178;DHT22;8704;52.006;4.374;2023-01-15T04:53:32;7.00;1.00
17178;DHT22;8704;52.006;4.374;2023-01-15T04:56:00;6.90;1.00
17178;DHT22;8704;52.006;4.374;2023-01-15T04:58:29;7.10;1.00
17178;DHT22;8704;52.006;4.374;2023-01-15T05:00:57;7.50;1.00
17178;DHT22;8704;52.006;4.374;2023-01-15T05:03:26;7.10;1.00
17178;DHT22;8704;52.006;4.374;2023-01-15T05:06:00;7.00;1.00
17178;DHT22;8704;52.006;4.374;2023-01-15T05:08:28;7.00;1.00
17178;DHT22;8704;52.006;4.374;2023-01-15T05:10:59;7.00;1.00
17178;DHT22;8704;52.006;4.374;2023-01-15T05:13:28;7.10;1.00
17178;DHT22;8704;52.006;4.374;2023-01-15T05:16:07;6.90;1.00
17178;DHT22;8704;52.006;4.374;2023-01-15T05:18:35;6.90;1.00
17178;DHT22;8704;52.006;4.374;2023-01-15T05:21:05;6.90;1.00
17178;DHT22;8704;52.006;4.374;2023-01-15T05:23:33;6.80;1.00
17178;DHT22;8704;52.006;4.374;2023-01-15T05:26:03;6.80;1.00
17178;DHT22;8704;52.006;4.374;2023-01-15T05:28:31;6.80;1.00
17178;DHT22;8704;52.006;4.374;2023-01-15T05:31:05;6.80;1.00
17178;DHT22;8704;52.006;4.374;2023-01-15T05:33:34;6.80;1.00
17178;DHT22;8704;52.006;4.374;2023-01-15T05:36:05;6.80;1.00
17178;DHT22;8704;52.006;4.374;2023-01-15T05:38:34;6.80;1.00
17178;DHT22;8704;52.006;4.374;2023-01-15T05:41:03;6.80;1.00
17178;DHT22;8704;52.006;4.374;2023-01-15T05:43:53;6.70;1.00
17178;DHT22;8704;52.006;4.374;2023-01-15T05:46:22;6.70;1.00
17178;DHT22;8704;52.006;4.374;2023-01-15T05:48:50;6.70;1.00
17178;DHT22;8704;52.006;4.374;2023-01-15T05:51:20;6.70;1.00
17178;DHT22;8704;52.006;4.374;2023-01-15T05:53:48;6.70;1.00
17178;DHT22;8704;52.006;4.374;2023-01-15T05:56:16;6.70;1.00
17178;DHT22;8704;52.006;4.374;2023-01-15T05:58:44;6.70;1.00
17178;DHT22;8704;52.006;4.374;2023-01-15T06:01:12;7.10;1.00
17178;DHT22;8704;52.006;4.374;2023-01-15T06:03:40;6.60;1.00
17178;DHT22;8704;52.006;4.374;2023-01-15T06:06:12;7.00;1.00
17178;DHT22;8704;52.006;4.374;2023-01-15T06:08:41;6.60;1.00
17178;DHT22;8704;52.006;4.374;2023-01-15T06:11:10;7.20;1.00
17178;DHT22;8704;52.006;4.374;2023-01-15T06:13:38;6.60;1.00
17178;DHT22;8704;52.006;4.374;2023-01-15T06:16:07;6.60;1.00
17178;DHT22;8704;52.006;4.374;2023-01-15T06:18:37;6.60;1.00
17178;DHT22;8704;52.006;4.374;2023-01-15T06:21:07;6.80;1.00
17178;DHT22;8704;52.006;4.374;2023-01-15T06:23:36;6.60;1.00
17178;DHT22;8704;52.006;4.374;2023-01-15T06:26:07;6.60;1.00
17178;DHT22;8704;52.006;4.374;2023-01-15T06:28:36;6.60;1.00
17178;DHT22;8704;52.006;4.374;2023-01-15T06:31:05;6.60;1.00
17178;DHT22;8704;52.006;4.374;2023-01-15T06:33:33;6.60;1.00
17178;DHT22;8704;52.006;4.374;2023-01-15T06:36:06;7.20;1.00
17178;DHT22;8704;52.006;4.374;2023-01-15T06:38:35;6.60;1.00
17178;DHT22;8704;52.006;4.374;2023-01-15T06:41:06;6.90;1.00
17178;DHT22;8704;52.006;4.374;2023-01-15T06:43:55;6.60;1.00
17178;DHT22;8704;52.006;4.374;2023-01-15T06:46:43;6.60;1.00
17178;DHT22;8704;52.006;4.374;2023-01-15T06:49:29;6.50;1.00
17178;DHT22;8704;52.006;4.374;2023-01-15T06:51:57;6.50;1.00
17178;DHT22;8704;52.006;4.374;2023-01-15T06:54:25;6.50;1.00
17178;DHT22;8704;52.006;4.374;2023-01-15T06:56:55;6.40;1.00
17178;DHT22;8704;52.006;4.374;2023-01-15T06:59:23;6.40;1.00
17178;DHT22;8704;52.006;4.374;2023-01-15T07:01:51;6.40;1.00
17178;DHT22;8704;52.006;4.374;2023-01-15T07:04:19;6.50;1.00
17178;DHT22;8704;52.006;4.374;2023-01-15T07:06:47;6.40;1.00
17178;DHT22;8704;52.006;4.374;2023-01-15T07:09:15;7.10;1.00
17178;DHT22;8704;52.006;4.374;2023-01-15T07:11:43;6.40;1.00
17178;DHT22;8704;52.006;4.374;2023-01-15T07:14:17;6.40;1.00
17178;DHT22;8704;52.006;4.374;2023-01-15T07:16:46;6.40;1.00
17178;DHT22;8704;52.006;4.374;2023-01-15T07:19:15;6.50;1.00
17178;DHT22;8704;52.006;4.374;2023-01-15T07:21:43;6.50;1.00
17178;DHT22;8704;52.006;4.374;2023-01-15T07:24:12;6.50;1.00
17178;DHT22;8704;52.006;4.374;2023-01-15T07:26:40;6.50;1.00
17178;DHT22;8704;52.006;4.374;2023-01-15T07:29:09;6.50;1.00
17178;DHT22;8704;52.006;4.374;2023-01-15T07:31:38;6.50;1.00
17178;DHT22;8704;52.006;4.374;2023-01-15T07:34:06;6.60;1.00
17178;DHT22;8704;52.006;4.374;2023-01-15T07:36:35;6.60;1.00
17178;DHT22;8704;52.006;4.374;2023-01-15T07:39:04;6.50;1.00
17178;DHT22;8704;52.006;4.374;2023-01-15T07:41:32;6.60;1.00
17178;DHT22;8704;52.006;4.374;2023-01-15T07:44:18;6.60;1.00
17178;DHT22;8704;52.006;4.374;2023-01-15T07:47:13;6.50;1.00
17178;DHT22;8704;52.006;4.374;2023-01-15T07:49:59;6.60;1.00
17178;DHT22;8704;52.006;4.374;2023-01-15T07:52:28;6.60;1.00
17178;DHT22;8704;52.006;4.374;2023-01-15T07:54:56;6.60;1.00
17178;DHT22;8704;52.006;4.374;2023-01-15T07:57:24;6.60;1.00
17178;DHT22;8704;52.006;4.374;2023-01-15T07:59:52;6.60;1.00
17178;DHT22;8704;52.006;4.374;2023-01-15T08:02:21;6.60;1.00
17178;DHT22;8704;52.006;4.374;2023-01-15T08:04:49;6.70;1.00
17178;DHT22;8704;52.006;4.374;2023-01-15T08:07:17;6.80;1.00
17178;DHT22;8704;52.006;4.374;2023-01-15T08:09:45;6.80;1.00
17178;DHT22;8704;52.006;4.374;2023-01-15T08:12:13;7.10;1.00
17178;DHT22;8704;52.006;4.374;2023-01-15T08:14:59;6.90;1.00
17178;DHT22;8704;52.006;4.374;2023-01-15T08:17:45;6.90;1.00
17178;DHT22;8704;52.006;4.374;2023-01-15T08:20:15;6.90;1.00
17178;DHT22;8704;52.006;4.374;2023-01-15T08:22:43;6.90;1.00
17178;DHT22;8704;52.006;4.374;2023-01-15T08:25:16;6.90;1.00
17178;DHT22;8704;52.006;4.374;2023-01-15T08:27:45;6.90;1.00
17178;DHT22;8704;52.006;4.374;2023-01-15T08:30:16;6.90;1.00
17178;DHT22;8704;52.006;4.374;2023-01-15T08:32:45;6.90;1.00
17178;DHT22;8704;52.006;4.374;2023-01-15T08:35:14;6.90;1.00
17178;DHT22;8704;52.006;4.374;2023-01-15T08:37:42;6.90;1.00
17178;DHT22;8704;52.006;4.374;2023-01-15T08:40:11;6.90;1.00
17178;DHT22;8704;52.006;4.374;2023-01-15T08:42:39;6.90;1.00
17178;DHT22;8704;52.006;4.374;2023-01-15T08:45:08;6.90;1.00
17178;DHT22;8704;52.006;4.374;2023-01-15T08:47:36;6.90;1.00
17178;DHT22;8704;52.006;4.374;2023-01-15T08:50:07;6.90;1.00
17178;DHT22;8704;52.006;4.374;2023-01-15T08:52:35;6.90;1.00
17178;DHT22;8704;52.006;4.374;2023-01-15T08:55:05;7.50;1.00
17178;DHT22;8704;52.006;4.374;2023-01-15T08:57:34;6.90;1.00
17178;DHT22;8704;52.006;4.374;2023-01-15T09:00:04;7.00;1.00
17178;DHT22;8704;52.006;4.374;2023-01-15T09:02:32;6.90;1.00
17178;DHT22;8704;52.006;4.374;2023-01-15T09:05:00;7.00;1.00
17178;DHT22;8704;52.006;4.374;2023-01-15T09:07:29;7.00;1.00
17178;DHT22;8704;52.006;4.374;2023-01-15T09:09:57;7.00;1.00
17178;DHT22;8704;52.006;4.374;2023-01-15T09:12:25;7.10;1.00
17178;DHT22;8704;52.006;4.374;2023-01-15T09:14:53;7.00;1.00
17178;DHT22;8704;52.006;4.374;2023-01-15T09:17:30;7.10;1.00
17178;DHT22;8704;52.006;4.374;2023-01-15T09:42:13;7.10;1.00
17178;DHT22;8704;52.006;4.374;2023-01-15T09:45:02;7.30;1.00
17178;DHT22;8704;52.006;4.374;2023-01-15T09:47:34;7.20;17.80
17178;DHT22;8704;52.006;4.374;2023-01-15T09:50:17;7.30;1.00
17178;DHT22;8704;52.006;4.374;2023-01-15T09:53:02;7.50;1.00
17178;DHT22;8704;52.006;4.374;2023-01-15T09:55:33;7.40;1.00
17178;DHT22;8704;52.006;4.374;2023-01-15T09:58:04;7.50;1.00
17178;DHT22;8704;52.006;4.374;2023-01-15T10:00:37;7.50;1.00
17178;DHT22;8704;52.006;4.374;2023-01-15T10:03:06;7.60;1.00
17178;DHT22;8704;52.006;4.374;2023-01-15T10:05:43;7.60;1.00
17178;DHT22;8704;52.006;4.374;2023-01-15T10:08:16;7.70;1.00
17178;DHT22;8704;52.006;4.374;2023-01-15T10:10:49;7.70;1.00
17178;DHT22;8704;52.006;4.374;2023-01-15T10:13:26;7.80;1.00
17178;DHT22;8704;52.006;4.374;2023-01-15T10:15:55;7.70;1.00
17178;DHT22;8704;52.006;4.374;2023-01-15T10:18:25;7.70;1.00
17178;DHT22;8704;52.006;4.374;2023-01-15T10:21:05;7.70;1.00
17178;DHT22;8704;52.006;4.374;2023-01-15T10:23:38;7.80;1.00
17178;DHT22;8704;52.006;4.374;2023-01-15T10:26:14;7.70;1.00
17178;DHT22;8704;52.006;4.374;2023-01-15T10:28:58;7.80;1.00
17178;DHT22;8704;52.006;4.374;2023-01-15T10:31:38;7.80;1.00
17178;DHT22;8704;52.006;4.374;2023-01-15T10:37:18;7.80;1.00
17178;DHT22;8704;52.006;4.374;2023-01-15T10:39:58;7.80;11.30
17178;DHT22;8704;52.006;4.374;2023-01-15T10:42:36;7.80;1.00
17178;DHT22;8704;52.006;4.374;2023-01-15T10:45:13;7.80;1.00
17178;DHT22;8704;52.006;4.374;2023-01-15T10:47:44;7.80;1.00
17178;DHT22;8704;52.006;4.374;2023-01-15T10:50:15;7.80;1.00
17178;DHT22;8704;52.006;4.374;2023-01-15T10:52:46;7.90;1.00
17178;DHT22;8704;52.006;4.374;2023-01-15T10:55:20;7.90;1.00
17178;DHT22;8704;52.006;4.374;2023-01-15T10:57:54;7.90;6.30
17178;DHT22;8704;52.006;4.374;2023-01-15T11:00:38;7.90;7.60
17178;DHT22;8704;52.006;4.374;2023-01-15T11:03:11;8.00;1.00
17178;DHT22;8704;52.006;4.374;2023-01-15T11:05:41;8.10;1.00
17178;DHT22;8704;52.006;4.374;2023-01-15T11:08:20;8.20;22.20
17178;DHT22;8704;52.006;4.374;2023-01-15T11:11:29;8.20;1.00
17178;DHT22;8704;52.006;4.374;2023-01-15T11:14:16;8.30;2.80
17178;DHT22;8704;52.006;4.374;2023-01-15T11:17:08;8.30;31.00
17178;DHT22;8704;52.006;4.374;2023-01-15T11:19:57;8.40;11.50
17178;DHT22;8704;52.006;4.374;2023-01-15T11:22:26;8.30;2.40
17178;DHT22;8704;52.006;4.374;2023-01-15T11:24:57;8.40;22.90
17178;DHT22;8704;52.006;4.374;2023-01-15T11:27:29;8.40;23.10
17178;DHT22;8704;52.006;4.374;2023-01-15T11:29:59;8.40;36.40
17178;DHT22;8704;52.006;4.374;2023-01-15T11:32:30;8.40;69.30
17178;DHT22;8704;52.006;4.374;2023-01-15T11:35:00;8.50;58.40
17178;DHT22;8704;52.006;4.374;2023-01-15T11:37:30;8.40;58.10
17178;DHT22;8704;52.006;4.374;2023-01-15T11:40:00;8.50;49.50
17178;DHT22;8704;52.006;4.374;2023-01-15T11:42:32;8.40;78.60
17178;DHT22;8704;52.006;4.374;2023-01-15T11:45:22;8.70;99.90
17178;DHT22;8704;52.006;4.374;2023-01-15T11:48:15;8.40;92.60
17178;DHT22;8704;52.006;4.374;2023-01-15T11:51:05;8.30;99.90
17178;DHT22;8704;52.006;4.374;2023-01-15T11:53:38;8.30;99.90
17178;DHT22;8704;52.006;4.374;2023-01-15T11:56:09;8.80;86.70
17178;DHT22;8704;52.006;4.374;2023-01-15T11:58:40;8.30;99.90
17178;DHT22;8704;52.006;4.374;2023-01-15T12:01:11;8.30;99.90
17178;DHT22;8704;52.006;4.374;2023-01-15T12:03:42;8.30;98.00
17178;DHT22;8704;52.006;4.374;2023-01-15T12:06:12;8.30;73.90
17178;DHT22;8704;52.006;4.374;2023-01-15T12:08:45;8.40;87.60
17178;DHT22;8704;52.006;4.374;2023-01-15T12:11:48;8.50;99.90
17178;DHT22;8704;52.006;4.374;2023-01-15T12:14:36;8.40;44.80
17178;DHT22;8704;52.006;4.374;2023-01-15T12:17:24;8.40;63.50
17178;DHT22;8704;52.006;4.374;2023-01-15T12:20:04;8.30;11.40
17178;DHT22;8704;52.006;4.374;2023-01-15T12:22:43;8.40;52.60
17178;DHT22;8704;52.006;4.374;2023-01-15T12:25:33;8.40;58.20
17178;DHT22;8704;52.006;4.374;2023-01-15T12:28:08;8.30;10.90
17178;DHT22;8704;52.006;4.374;2023-01-15T12:30:43;8.40;48.10
17178;DHT22;8704;52.006;4.374;2023-01-15T12:33:22;8.40;97.50
17178;DHT22;8704;52.006;4.374;2023-01-15T12:35:57;8.30;26.40
17178;DHT22;8704;52.006;4.374;2023-01-15T12:38:44;8.40;92.90
17178;DHT22;8704;52.006;4.374;2023-01-15T12:41:15;8.40;55.60
17178;DHT22;8704;52.006;4.374;2023-01-15T12:43:48;8.40;71.10
17178;DHT22;8704;52.006;4.374;2023-01-15T12:46:38;8.50;89.00
17178;DHT22;8704;52.006;4.374;2023-01-15T12:49:18;8.60;99.90
17178;DHT22;8704;52.006;4.374;2023-01-15T12:51:56;8.60;95.70
17178;DHT22;8704;52.006;4.374;2023-01-15T12:54:34;8.70;99.90
17178;DHT22;8704;52.006;4.374;2023-01-15T12:57:12;8.70;17.70
17178;DHT22;8704;52.006;4.374;2023-01-15T12:59:46;8.60;38.10
17178;DHT22;8704;52.006;4.374;2023-01-15T13:02:20;8.60;99.90
17178;DHT22;8704;52.006;4.374;2023-01-15T13:04:53;8.80;99.90
17178;DHT22;8704;52.006;4.374;2023-01-15T13:07:28;8.60;69.60
17178;DHT22;8704;52.006;4.374;2023-01-15T13:10:03;8.90;99.90
17178;DHT22;8704;52.006;4.374;2023-01-15T13:12:33;8.50;99.90
17178;DHT22;8704;52.006;4.374;2023-01-15T13:15:02;8.50;99.90
17178;DHT22;8704;52.006;4.374;2023-01-15T13:17:37;8.50;99.90
17178;DHT22;8704;52.006;4.374;2023-01-15T13:20:24;8.60;99.90
17178;DHT22;8704;52.006;4.374;2023-01-15T13:23:06;8.50;99.90
17178;DHT22;8704;52.006;4.374;2023-01-15T13:25:53;8.50;95.90
17178;DHT22;8704;52.006;4.374;2023-01-15T13:28:38;8.60;1.00
17178;DHT22;8704;52.006;4.374;2023-01-15T13:31:33;8.60;26.60
17178;DHT22;8704;52.006;4.374;2023-01-15T13:34:06;8.60;99.90
17178;DHT22;8704;52.006;4.374;2023-01-15T13:36:40;8.60;99.90
17178;DHT22;8704;52.006;4.374;2023-01-15T13:39:17;8.60;68.50
17178;DHT22;8704;52.006;4.374;2023-01-15T13:41:48;8.70;99.90
17178;DHT22;8704;52.006;4.374;2023-01-15T13:44:37;8.70;99.90
17178;DHT22;8704;52.006;4.374;2023-01-15T13:47:07;8.80;99.90
17178;DHT22;8704;52.006;4.374;2023-01-15T13:49:44;9.00;99.90
17178;DHT22;8704;52.006;4.374;2023-01-15T13:52:20;8.90;99.90
17178;DHT22;8704;52.006;4.374;2023-01-15T13:54:52;8.90;99.90
17178;DHT22;8704;52.006;4.374;2023-01-15T13:57:32;9.30;99.90
17178;DHT22;8704;52.006;4.374;2023-01-15T14:00:01;8.80;99.90
17178;DHT22;8704;52.006;4.374;2023-01-15T14:02:31;8.90;99.90
17178;DHT22;8704;52.006;4.374;2023-01-15T14:05:12;9.70;99.90
17178;DHT22;8704;52.006;4.374;2023-01-15T14:07:48;8.70;72.30
17178;DHT22;8704;52.006;4.374;2023-01-15T14:10:34;8.80;93.30
17178;DHT22;8704;52.006;4.374;2023-01-15T14:13:26;8.70;99.90
17178;DHT22;8704;52.006;4.374;2023-01-15T14:16:05;8.60;99.90
17178;DHT22;8704;52.006;4.374;2023-01-15T14:21:33;8.70;99.90
17178;DHT22;8704;52.006;4.374;2023-01-15T14:27:30;8.50;99.90
17178;DHT22;8704;52.006;4.374;2023-01-15T14:30:17;8.50;99.90
17178;DHT22;8704;52.006;4.374;2023-01-15T14:32:59;8.50;99.90
17178;DHT22;8704;52.006;4.374;2023-01-15T14:35:34;8.70;99.90
17178;DHT22;8704;52.006;4.374;2023-01-15T14:38:04;8.50;99.90
17178;DHT22;8704;52.006;4.374;2023-01-15T14:40:34;8.70;99.90
17178;DHT22;8704;52.006;4.374;2023-01-15T14:43:13;8.70;99.90
17178;DHT22;8704;52.006;4.374;2023-01-15T14:45:45;8.50;99.90
17178;DHT22;8704;52.006;4.374;2023-01-15T14:48:18;8.50;99.90
17178;DHT22;8704;52.006;4.374;2023-01-15T14:50:47;8.50;99.90
17178;DHT22;8704;52.006;4.374;2023-01-15T14:53:35;8.50;93.50
17178;DHT22;8704;52.006;4.374;2023-01-15T14:56:12;8.40;99.90
17178;DHT22;8704;52.006;4.374;2023-01-15T14:58:48;8.40;99.90
17178;DHT22;8704;52.006;4.374;2023-01-15T15:01:29;8.40;99.90
17178;DHT22;8704;52.006;4.374;2023-01-15T15:06:49;8.50;99.60
17178;DHT22;8704;52.006;4.374;2023-01-15T15:09:26;8.40;99.90
17178;DHT22;8704;52.006;4.374;2023-01-15T15:14:53;8.30;99.90
17178;DHT22;8704;52.006;4.374;2023-01-15T15:17:38;8.30;99.90
17178;DHT22;8704;52.006;4.374;2023-01-15T15:20:17;8.20;99.90
17178;DHT22;8704;52.006;4.374;2023-01-15T15:22:52;8.60;75.90
17178;DHT22;8704;52.006;4.374;2023-01-15T15:25:24;8.30;89.70
17178;DHT22;8704;52.006;4.374;2023-01-15T15:28:03;8.20;99.90
17178;DHT22;8704;52.006;4.374;2023-01-15T15:30:35;8.20;64.40
17178;DHT22;8704;52.006;4.374;2023-01-15T15:33:03;8.40;99.90
17178;DHT22;8704;52.006;4.374;2023-01-15T15:35:33;8.20;99.90
17178;DHT22;8704;52.006;4.374;2023-01-15T15:38:04;8.70;93.00
17178;DHT22;8704;52.006;4.374;2023-01-15T15:40:33;8.20;99.90
17178;DHT22;8704;52.006;4.374;2023-01-15T15:43:10;8.20;99.90
17178;DHT22;8704;52.006;4.374;2023-01-15T15:45:58;8.30;99.90
17178;DHT22;8704;52.006;4.374;2023-01-15T15:48:48;8.10;98.10
17178;DHT22;8704;52.006;4.374;2023-01-15T15:51:31;8.10;93.00
17178;DHT22;8704;52.006;4.374;2023-01-15T15:54:10;8.10;89.30
17178;DHT22;8704;52.006;4.374;2023-01-15T15:56:42;8.10;60.80
17178;DHT22;8704;52.006;4.374;2023-01-15T15:59:17;8.00;48.10
17178;DHT22;8704;52.006;4.374;2023-01-15T16:01:48;8.00;23.30
17178;DHT22;8704;52.006;4.374;2023-01-15T16:04:17;8.50;14.70
17178;DHT22;8704;52.006;4.374;2023-01-15T16:06:46;8.00;5.70
17178;DHT22;8704;52.006;4.374;2023-01-15T16:09:20;8.00;21.10
17178;DHT22;8704;52.006;4.374;2023-01-15T16:11:49;8.00;32.00
17178;DHT22;8704;52.006;4.374;2023-01-15T16:14:18;8.20;99.90
17178;DHT22;8704;52.006;4.374;2023-01-15T16:16:49;8.00;99.90
17178;DHT22;8704;52.006;4.374;2023-01-15T16:19:20;7.90;99.90
17178;DHT22;8704;52.006;4.374;2023-01-15T16:21:51;7.80;1.00
17178;DHT22;8704;52.006;4.374;2023-01-15T16:24:25;7.70;1.00
17178;DHT22;8704;52.006;4.374;2023-01-15T16:26:58;7.70;1.00
17178;DHT22;8704;52.006;4.374;2023-01-15T16:29:29;7.80;1.00
17178;DHT22;8704;52.006;4.374;2023-01-15T16:31:59;7.50;1.00
17178;DHT22;8704;52.006;4.374;2023-01-15T16:34:29;7.80;1.00
17178;DHT22;8704;52.006;4.374;2023-01-15T16:36:58;7.40;1.00
17178;DHT22;8704;52.006;4.374;2023-01-15T16:39:29;7.30;1.00
17178;DHT22;8704;52.006;4.374;2023-01-15T16:41:58;7.20;1.00
17178;DHT22;8704;52.006;4.374;2023-01-15T16:44:36;7.10;1.00
17178;DHT22;8704;52.006;4.374;2023-01-15T16:47:20;7.10;1.00
17178;DHT22;8704;52.006;4.374;2023-01-15T16:49:51;7.00;1.00
17178;DHT22;8704;52.006;4.374;2023-01-15T16:52:48;7.00;1.00
17178;DHT22;8704;52.006;4.374;2023-01-15T16:55:37;7.00;1.00
17178;DHT22;8704;52.006;4.374;2023-01-15T16:58:20;6.90;1.00
17178;DHT22;8704;52.006;4.374;2023-01-15T17:00:48;6.90;1.00
17178;DHT22;8704;52.006;4.374;2023-01-15T17:03:20;6.80;1.00
17178;DHT22;8704;52.006;4.374;2023-01-15T17:05:51;6.70;1.00
17178;DHT22;8704;52.006;4.374;2023-01-15T17:08:22;6.70;1.00
17178;DHT22;8704;52.006;4.374;2023-01-15T17:10:52;6.60;1.00
17178;DHT22;8704;52.006;4.374;2023-01-15T17:13:21;6.60;1.00
17178;DHT22;8704;52.006;4.374;2023-01-15T17:16:02;6.60;1.00
17178;DHT22;8704;52.006;4.374;2023-01-15T17:18:33;6.50;1.00
17178;DHT22;8704;52.006;4.374;2023-01-15T17:21:02;6.40;1.00
17178;DHT22;8704;52.006;4.374;2023-01-15T17:23:38;6.40;1.00
17178;DHT22;8704;52.006;4.374;2023-01-15T17:26:14;6.40;1.00
17178;DHT22;8704;52.006;4.374;2023-01-15T17:28:42;6.30;1.00